createdAt,value
2019-05-06T00:01:58.890Z,73.05
2019-05-06T00:06:03.943Z,73.66
2019-05-06T00:10:24.477Z,74.05
2019-05-06T00:14:28.413Z,74.48
2019-05-06T00:18:34.232Z,74.34
2019-05-06T00:22:38.690Z,74.34
2019-05-06T00:27:04.936Z,74.73
2019-05-06T00:31:15.943Z,75.28
2019-05-06T00:35:17.650Z,74.95
2019-05-06T00:39:33.953Z,75.75
2019-05-06T00:43:38.180Z,75.46
2019-05-06T00:47:44.378Z,75.91
2019-05-06T00:51:48.782Z,75.79
2019-05-06T00:55:53.842Z,76.31
2019-05-06T00:59:58.184Z,76.37
2019-05-06T01:04:04.588Z,76.51
2019-05-06T01:08:09.063Z,76.78
2019-05-06T01:12:14.350Z,76.68
2019-05-06T01:16:20.703Z,76.87
2019-05-06T01:20:24.934Z,77.02
2019-05-06T01:24:29.164Z,76.94
2019-05-06T01:28:34.127Z,76.89
2019-05-06T01:32:38.520Z,76.87
2019-05-06T01:36:43.719Z,76.85
2019-05-06T01:41:07.090Z,77.06
2019-05-06T01:45:14.097Z,77.00
2019-05-06T01:49:18.109Z,77.13
2019-05-06T01:53:24.143Z,77.15
2019-05-06T01:57:28.427Z,77.26
2019-05-06T02:01:34.177Z,77.49
2019-05-06T02:05:38.642Z,77.26
2019-05-06T02:09:44.780Z,77.15
2019-05-06T02:13:49.172Z,77.34
2019-05-06T02:17:55.130Z,77.42
2019-05-06T02:22:21.273Z,77.69
2019-05-06T02:26:25.622Z,77.82
2019-05-06T02:30:48.788Z,77.75
2019-05-06T02:35:06.113Z,77.64
2019-05-06T02:39:10.377Z,77.69
2019-05-06T02:43:14.984Z,77.60
2019-05-06T02:47:28.161Z,77.68
2019-05-06T02:51:33.429Z,77.29
2019-05-06T02:55:38.156Z,77.45
2019-05-06T02:59:44.104Z,77.43
2019-05-06T03:03:48.318Z,77.00
2019-05-06T03:07:56.990Z,77.24
2019-05-06T03:11:58.809Z,77.25
2019-05-06T03:16:05.648Z,77.05
2019-05-06T03:20:13.227Z,76.98
2019-05-06T03:24:36.355Z,76.66
2019-05-06T03:28:43.751Z,76.67
2019-05-06T03:33:21.315Z,76.39
2019-05-06T03:36:56.072Z,76.77
2019-05-06T03:40:59.098Z,76.35
2019-05-06T03:45:09.478Z,76.63
2019-05-06T03:49:14.000Z,76.47
2019-05-06T03:53:18.664Z,76.39
2019-05-06T03:57:24.320Z,76.19
2019-05-06T04:01:29.071Z,76.14
2019-05-06T04:05:33.763Z,75.83
2019-05-06T04:09:38.018Z,75.56
2019-05-06T04:13:43.680Z,75.57
2019-05-06T04:17:57.537Z,75.54
2019-05-06T04:22:23.394Z,75.13
2019-05-06T04:26:46.152Z,75.31
2019-05-06T04:30:49.264Z,75.32
2019-05-06T04:34:53.812Z,75.06
2019-05-06T04:38:58.033Z,74.82
2019-05-06T04:43:03.512Z,74.53
2019-05-06T04:47:08.397Z,74.40
2019-05-06T04:51:13.655Z,73.73
2019-05-06T04:55:18.228Z,73.60
2019-05-06T04:59:23.292Z,73.52
2019-05-06T05:03:27.877Z,73.89
2019-05-06T05:07:33.410Z,73.69
2019-05-06T05:12:03.077Z,73.21
2019-05-06T05:16:36.010Z,73.47
2019-05-06T05:20:46.058Z,73.21
2019-05-06T05:24:46.384Z,73.09
2019-05-06T05:28:53.185Z,72.94
2019-05-06T05:32:57.269Z,72.80
2019-05-06T05:37:03.025Z,72.46
2019-05-06T05:41:07.303Z,72.44
2019-05-06T05:45:12.838Z,72.22
2019-05-06T05:49:28.774Z,71.71
2019-05-06T05:53:33.272Z,71.44
2019-05-06T05:57:37.671Z,71.56
2019-05-06T06:01:43.442Z,71.36
2019-05-06T06:05:47.840Z,70.89
2019-05-06T06:10:02.657Z,70.72
2019-05-06T06:14:26.213Z,70.72
2019-05-06T06:18:59.428Z,70.34
2019-05-06T06:23:10.228Z,70.29
2019-05-06T06:27:14.493Z,69.95
2019-05-06T06:31:35.682Z,69.12
2019-05-06T06:36:12.336Z,68.69
2019-05-06T06:40:35.898Z,69.00
2019-05-06T06:44:42.292Z,68.16
2019-05-06T06:48:46.043Z,67.20
2019-05-06T06:52:52.520Z,67.91
2019-05-06T06:57:09.191Z,67.50
2019-05-06T07:01:26.603Z,67.58
2019-05-06T07:05:39.219Z,67.06
2019-05-06T07:09:43.433Z,67.19
2019-05-06T07:13:54.712Z,65.81
2019-05-06T07:17:58.960Z,65.89
2019-05-06T07:22:06.648Z,66.06
2019-05-06T07:26:12.163Z,65.42
2019-05-06T07:30:17.244Z,65.22
2019-05-06T07:34:22.890Z,65.06
2019-05-06T07:38:27.283Z,64.22
2019-05-06T07:42:38.122Z,64.17
2019-05-06T07:46:53.578Z,62.75
2019-05-06T07:50:57.831Z,63.60
2019-05-06T07:55:02.534Z,63.92
2019-05-06T07:59:09.861Z,62.92
2019-05-06T08:03:14.255Z,62.50
2019-05-06T08:07:18.476Z,61.95
2019-05-06T08:11:25.982Z,60.68
2019-05-06T08:15:28.990Z,60.69
2019-05-06T08:19:33.743Z,59.39
2019-05-06T08:23:43.544Z,59.75
2019-05-06T08:27:49.491Z,60.65
2019-05-06T08:31:53.725Z,60.29
2019-05-06T08:36:10.598Z,59.07
2019-05-06T08:40:05.735Z,59.64
2019-05-06T08:44:10.028Z,59.08
2019-05-06T08:48:14.294Z,56.42
2019-05-06T08:52:19.357Z,57.56
2019-05-06T08:56:23.886Z,58.69
2019-05-06T09:00:28.943Z,58.97
2019-05-06T09:04:33.205Z,58.08
2019-05-06T09:08:37.431Z,57.48
2019-05-06T09:12:42.550Z,57.95
2019-05-06T09:16:50.514Z,55.62
2019-05-06T09:20:54.552Z,56.98
2019-05-06T09:24:58.757Z,53.92
2019-05-06T09:29:09.370Z,54.43
2019-05-06T09:33:15.510Z,54.09
2019-05-06T09:37:20.138Z,54.61
2019-05-06T09:41:24.411Z,52.84
2019-05-06T09:45:28.645Z,51.72
2019-05-06T09:49:34.020Z,52.20
2019-05-06T09:54:00.175Z,52.65
2019-05-06T09:58:05.071Z,51.44
2019-05-06T10:02:09.356Z,51.12
2019-05-06T10:06:13.601Z,50.59
2019-05-06T10:10:18.055Z,51.03
2019-05-06T10:14:23.402Z,51.46
2019-05-06T10:18:27.819Z,50.29
2019-05-06T10:22:32.574Z,50.25
2019-05-06T10:26:43.299Z,49.62
2019-05-06T10:30:47.563Z,46.64
2019-05-06T10:34:52.636Z,44.86
2019-05-06T10:39:06.071Z,45.56
2019-05-06T10:43:27.014Z,45.56
2019-05-06T10:47:33.043Z,43.78
2019-05-06T10:52:02.466Z,44.74
2019-05-06T10:56:28.630Z,44.76
2019-05-06T11:00:33.289Z,45.85
2019-05-06T11:04:37.638Z,46.06
2019-05-06T11:08:42.179Z,44.51
2019-05-06T11:12:46.449Z,45.97
2019-05-06T11:16:51.083Z,45.74
2019-05-06T11:20:56.239Z,45.74
2019-05-06T11:25:02.942Z,44.85
2019-05-06T11:29:12.577Z,44.59
2019-05-06T11:33:38.848Z,44.71
2019-05-06T11:37:54.336Z,44.56
2019-05-06T11:42:22.534Z,44.36
2019-05-06T11:46:05.626Z,44.36
2019-05-06T11:50:13.007Z,42.31
2019-05-06T11:54:20.344Z,43.69
2019-05-06T11:58:42.808Z,43.91
2019-05-06T12:02:48.749Z,44.55
2019-05-06T12:07:09.205Z,42.88
2019-05-06T12:10:59.211Z,43.72
2019-05-06T12:15:05.411Z,43.37
2019-05-06T12:19:09.536Z,42.20
2019-05-06T12:23:15.550Z,43.85
2019-05-06T12:27:37.686Z,44.05
2019-05-06T12:31:42.316Z,45.16
2019-05-06T12:35:47.924Z,43.81
2019-05-06T12:39:57.523Z,43.83
2019-05-06T12:44:03.100Z,42.70
2019-05-06T12:48:24.379Z,43.39
2019-05-06T12:52:28.972Z,43.34
2019-05-06T12:56:35.134Z,43.19
2019-05-06T13:00:39.410Z,43.25
2019-05-06T13:04:54.581Z,42.39
2019-05-06T13:08:58.708Z,42.39
2019-05-06T13:13:05.424Z,43.50
2019-05-06T13:17:11.991Z,42.21
2019-05-06T13:21:16.326Z,42.12
2019-05-06T13:25:22.935Z,41.48
2019-05-06T13:29:32.278Z,41.06
2019-05-06T13:33:45.117Z,41.06
2019-05-06T13:37:49.770Z,42.63
2019-05-06T13:41:53.992Z,39.99
2019-05-06T13:46:00.066Z,41.39
2019-05-06T13:50:05.074Z,41.89
2019-05-06T13:54:12.730Z,42.50
2019-05-06T13:58:15.597Z,41.84
2019-05-06T14:02:37.568Z,42.06
2019-05-06T14:06:43.223Z,42.41
2019-05-06T14:10:56.661Z,42.37
2019-05-06T14:14:53.866Z,41.12
2019-05-06T14:18:58.114Z,41.69
2019-05-06T14:23:02.435Z,40.97
2019-05-06T14:27:11.881Z,42.15
2019-05-06T14:31:25.810Z,41.86
2019-05-06T14:35:29.670Z,41.81
2019-05-06T14:39:49.995Z,42.50
2019-05-06T14:43:43.177Z,42.50
2019-05-06T14:47:47.444Z,40.51
2019-05-06T14:51:53.708Z,39.36
2019-05-06T14:55:59.645Z,40.92
2019-05-06T15:00:04.622Z,40.92
2019-05-06T15:04:08.888Z,41.60
2019-05-06T15:08:13.574Z,41.60
2019-05-06T15:12:18.325Z,41.32
2019-05-06T15:16:22.701Z,42.25
2019-05-06T15:20:26.931Z,42.21
2019-05-06T15:24:31.668Z,43.18
2019-05-06T15:28:36.259Z,43.18
2019-05-06T15:32:40.596Z,44.01
2019-05-06T15:36:57.256Z,42.83
2019-05-06T15:41:02.934Z,43.73
2019-05-06T15:45:07.479Z,44.25
2019-05-06T15:49:11.894Z,44.26
2019-05-06T15:53:16.186Z,44.61
2019-05-06T15:57:22.691Z,44.97
2019-05-06T16:01:26.500Z,44.55
2019-05-06T16:05:34.493Z,45.08
2019-05-06T16:09:38.497Z,44.02
2019-05-06T16:13:45.121Z,44.02
2019-05-06T16:17:49.254Z,43.13
2019-05-06T16:21:53.791Z,43.13
2019-05-06T16:25:58.061Z,44.23
2019-05-06T16:30:03.436Z,44.37
2019-05-06T16:34:07.778Z,44.34
2019-05-06T16:38:13.207Z,44.30
2019-05-06T16:42:30.935Z,44.55
2019-05-06T16:46:35.142Z,44.57
2019-05-06T16:50:39.489Z,43.91
2019-05-06T16:54:43.756Z,45.11
2019-05-06T16:58:52.643Z,45.18
2019-05-06T17:03:23.983Z,44.46
2019-05-06T17:07:28.863Z,44.78
2019-05-06T17:11:34.596Z,44.75
2019-05-06T17:15:39.165Z,44.32
2019-05-06T17:19:43.416Z,45.06
2019-05-06T17:23:47.652Z,44.51
2019-05-06T17:27:52.683Z,45.11
2019-05-06T17:32:13.448Z,44.66
2019-05-06T17:36:19.458Z,44.62
2019-05-06T17:40:24.140Z,44.04
2019-05-06T17:44:29.524Z,44.04
2019-05-06T17:48:42.451Z,44.65
2019-05-06T17:52:46.871Z,44.89
2019-05-06T17:56:53.927Z,45.55
2019-05-06T18:00:58.585Z,45.37
2019-05-06T18:05:05.111Z,45.37
2019-05-06T18:09:12.621Z,44.97
2019-05-06T18:13:17.789Z,45.17
2019-05-06T18:17:22.147Z,46.53
2019-05-06T18:21:27.171Z,46.53
2019-05-06T18:25:32.832Z,46.12
2019-05-06T18:29:37.142Z,45.65
2019-05-06T18:33:43.101Z,46.48
2019-05-06T18:37:48.062Z,46.74
2019-05-06T18:41:53.243Z,46.74
2019-05-06T18:45:57.881Z,46.61
2019-05-06T18:50:03.318Z,46.78
2019-05-06T18:54:08.034Z,46.81
2019-05-06T18:58:12.918Z,47.02
2019-05-06T19:02:17.817Z,47.11
2019-05-06T19:06:23.249Z,47.23
2019-05-06T19:10:29.998Z,47.25
2019-05-06T19:14:34.547Z,47.25
2019-05-06T19:18:38.880Z,47.37
2019-05-06T19:22:43.592Z,47.64
2019-05-06T19:26:48.340Z,47.60
2019-05-06T19:30:54.064Z,47.76
2019-05-06T19:34:58.971Z,48.10
2019-05-06T19:39:05.991Z,48.25
2019-05-06T19:43:12.267Z,48.09
2019-05-06T19:47:16.397Z,48.29
2019-05-06T19:51:22.489Z,48.33
2019-05-06T19:55:27.493Z,48.51
2019-05-06T19:59:33.177Z,48.57
2019-05-06T20:03:37.897Z,48.50
2019-05-06T20:07:52.212Z,48.51
2019-05-06T20:11:59.877Z,48.54
2019-05-06T20:16:05.910Z,48.77
2019-05-06T20:20:12.425Z,48.88
2019-05-06T20:24:16.790Z,49.00
2019-05-06T20:28:22.722Z,49.05
2019-05-06T20:32:27.474Z,49.12
2019-05-06T20:36:33.219Z,49.18
2019-05-06T20:40:38.510Z,49.30
2019-05-06T20:44:43.587Z,49.38
2019-05-06T20:48:47.915Z,49.63
2019-05-06T20:52:52.230Z,49.80
2019-05-06T20:56:56.541Z,49.95
2019-05-06T21:01:02.992Z,50.09
2019-05-06T21:05:10.883Z,50.35
2019-05-06T21:09:15.059Z,50.50
2019-05-06T21:13:29.647Z,50.58
2019-05-06T21:17:25.719Z,50.68
2019-05-06T21:21:31.926Z,50.77
2019-05-06T21:25:36.298Z,50.94
2019-05-06T21:29:42.046Z,51.23
2019-05-06T21:33:46.770Z,51.21
2019-05-06T21:37:52.947Z,51.44
2019-05-06T21:41:57.266Z,51.51
2019-05-06T21:46:02.401Z,51.68
2019-05-06T21:50:07.010Z,52.01
2019-05-06T21:54:12.528Z,52.14
2019-05-06T21:58:17.102Z,52.18
2019-05-06T22:02:22.996Z,52.37
2019-05-06T22:06:27.393Z,52.53
2019-05-06T22:10:32.509Z,52.78
2019-05-06T22:14:37.007Z,52.98
2019-05-06T22:18:43.313Z,53.26
2019-05-06T22:22:47.430Z,53.39
2019-05-06T22:26:52.088Z,53.51
2019-05-06T22:30:56.562Z,53.68
2019-05-06T22:35:02.361Z,53.81
2019-05-06T22:39:07.666Z,53.92
2019-05-06T22:43:12.355Z,54.09
2019-05-06T22:47:16.729Z,54.27
2019-05-06T22:51:22.906Z,54.52
2019-05-06T22:55:27.475Z,54.69
2019-05-06T22:59:32.992Z,54.72
2019-05-06T23:03:37.932Z,54.97
2019-05-06T23:07:42.385Z,54.88
2019-05-06T23:11:47.059Z,54.89
2019-05-06T23:15:52.378Z,55.27
2019-05-06T23:19:56.735Z,54.93
2019-05-06T23:24:02.142Z,55.07
2019-05-06T23:28:06.475Z,55.04
2019-05-06T23:32:13.712Z,55.04
2019-05-06T23:36:16.693Z,55.21
2019-05-06T23:40:56.983Z,55.19
2019-05-06T23:45:37.009Z,55.26
2019-05-06T23:50:17.064Z,55.24
2019-05-06T23:54:57.185Z,55.38
2019-05-06T23:59:01.393Z,55.31
